This is the latest recevied weather packets stored in our database for station/object K8RLH. If no packets are shown the sender has not sent any weather packets the latest 10 day(s).
| Time | Temp. | Humidity | Pressure | Rain* | Wind** | Luminosity | Snow |
|---|---|---|---|---|---|---|---|
| 1778005839 | 25° C | 38% | 1017.5 hPa | 0 mm | - | 111 W/m² | - |
| 1778005535 | 25° C | 40% | 1017.4 hPa | 0 mm | - | 132 W/m² | - |
| 1778005232 | 25.56° C | 38% | 1017.5 hPa | 0 mm | - | 141 W/m² | - |
| 1778004929 | 25.56° C | 38% | 1017.5 hPa | 0 mm | - | 156 W/m² | - |
| 1778004626 | 25° C | 38% | 1017.6 hPa | 0 mm | - | 155 W/m² | - |
| 1778004321 | 25° C | 39% | 1018 hPa | 0 mm | - | 151 W/m² | - |
| 1778004021 | 24.44° C | 39% | 1018 hPa | 0 mm | - | 162 W/m² | - |
| 1778003715 | 25° C | 37% | 1018.1 hPa | 0 mm | - | 153 W/m² | - |
| 1778003413 | 25° C | 37% | 1018.3 hPa | 0 mm | - | 129 W/m² | - |
| 1778003109 | 24.44° C | 38% | 1018.2 hPa | 0 mm | - | 121 W/m² | - |
| 1778002805 | 25° C | 37% | 1018.4 hPa | 0 mm | - | 89 W/m² | - |
| 1778002502 | 24.44° C | 37% | 1018.4 hPa | 0 mm | - | 91 W/m² | - |
| 1778002199 | 24.44° C | 37% | 1018.6 hPa | 0 mm | - | 77 W/m² | - |
| 1778001897 | 24.44° C | 39% | 1018.7 hPa | 0 mm | - | 105 W/m² | - |
| 1778001596 | 25° C | 39% | 1018.7 hPa | 0 mm | - | 77 W/m² | - |
| 1778001293 | 23.89° C | 43% | 1018.6 hPa | 0 mm | - | 93 W/m² | - |
| 1778000990 | 24.44° C | 40% | 1018.6 hPa | 0 mm | - | 78 W/m² | - |
| 1778000687 | 23.89° C | 41% | 1018.3 hPa | 0 mm | - | 61 W/m² | - |
| 1778000382 | 23.89° C | 42% | 1018.5 hPa | 0 mm | - | 126 W/m² | - |
| 1778000078 | 23.89° C | 42% | 1018.4 hPa | 0 mm | - | 70 W/m² | - |
| 1777999774 | 23.89° C | 43% | 1018.4 hPa | 0 mm | - | 380 W/m² | - |
| 1777999470 | 23.89° C | 42% | 1018.3 hPa | 0 mm | - | 107 W/m² | - |
| 1777999168 | 23.89° C | 43% | 1018.4 hPa | 0 mm | - | 130 W/m² | - |
| 1777998867 | 23.89° C | 44% | 1018.3 hPa | 0 mm | - | 88 W/m² | - |
| 1777998566 | 23.33° C | 44% | 1018.6 hPa | 0 mm | - | 58 W/m² | - |
* Rain latest hour (hover to see other rain measurements)
** Current wind speed in m/s (hover to see current wind gust speed)